Garner, NC (27529)

6:34 PM EST on January 18, 2017 (GMT -0500)
Twisted Oaks | | Change Station
Active Advisory: Small Craft Advisory

Elev 249 ft 35.58 °N, 78.52 °W | Updated 4 minutes ago

Clear
Clear
59.9 °F
Feels Like 59.9 °F
N
4.0
Wind Variable Wind from NW
Gusts 4.0 mph

Today
High -- | Low -- °F
--% Chance of Precip.
Yesterday
High -- | Low -- °F
Precip. -- in
Pressure 30.01 in
Visibility 10.0 miles
Clouds Few 25000 ft
Dew Point 40.2 °F
Humidity 48%
Rainfall 0.00 in
Snow Depth Not available.
7:22 AM 5:27 PM
Waning Gibbous, 59% visible
METAR KRDU 182251Z 02004KT 10SM FEW250 16/01 A3001 RMK AO2 SLP160 T01560006
Pressure 30.01 in
Visibility 10.0 miles
Clouds Few 25000 ft
Dew Point 40.2 °F
Humidity 48%
Rainfall 0.00 in
Snow Depth Not available.
7:22 AM 5:27 PM
Waning Gibbous, 59% visible
METAR KRDU 182251Z 02004KT 10SM FEW250 16/01 A3001 RMK AO2 SLP160 T01560006

Get Your Daily Forecast Email!

Thanks for signing up!

Be on the lookout for a verification email in your inbox.

You'll start receiving the daily forecast at 8 AM.

×

10-Day Weather Forecast

Almanac

Astronomy

Jan. 18, 2017 Rise Set
Actual Time
Civil Twilight
Nautical Twilight
Astronomical Twilight
Moon
Length of Visible Light
Length of Day
Tomorrow will be .
, % of the Moon is Illuminated

Today's Extremes

State Highs State Lows

Community

WunderPhotos

Upload Photos

1,962,540 photos uploaded!

WunderBlog® & News

Nearby

Air Quality

  Air Quality AQ Index Pollutant
Not available.

Snow Depth

Station Depth Elevation

Earthquake Activity

City Distance Mag. Time & Date
Minimum magnitude displayed is 2.5.

Coastal Water Temperatures

Place Temperature

Stations

Nearby Weather Stations

Station Location Temp. Windchill Dew Point Humidity Wind Precip. Elev Updated Type
                   

Watches & Warnings

Small Craft Advisory
Issued: 4:20 PM EST Jan. 18, 2017 – National Weather Service

... Small Craft Advisory now in effect until 8 PM EST this
evening...

* winds... north 10 to 20 kt with gusts up to 25 kt.

* Seas... 3 to 5 feet.

Precautionary/preparedness actions...

A Small Craft Advisory means that wind speeds of 25 to 33 knots
and/or seas of 6 feet or greater are expected to produce
hazardous wave conditions to small craft. Inexperienced
mariners... especially those operating smaller vessels should
avoid navigating in these conditions.